createdAt,value
2017-08-22T00:00:47.539Z,4.67
2017-08-22T00:03:20.670Z,3.60
2017-08-22T00:05:48.267Z,3.50
2017-08-22T00:08:15.808Z,3.60
2017-08-22T00:10:43.324Z,4.40
2017-08-22T00:13:10.872Z,4.70
2017-08-22T00:15:38.517Z,4.10
2017-08-22T00:18:06.080Z,4.73
2017-08-22T00:20:33.584Z,4.17
2017-08-22T00:23:01.155Z,3.93
2017-08-22T00:25:28.663Z,3.30
2017-08-22T00:27:56.254Z,3.97
2017-08-22T00:30:23.824Z,3.90
2017-08-22T00:32:51.346Z,4.00
2017-08-22T00:35:18.919Z,3.57
2017-08-22T00:37:46.464Z,3.70
2017-08-22T00:40:14.207Z,3.90
2017-08-22T00:42:41.764Z,4.40
2017-08-22T00:45:09.284Z,4.17
2017-08-22T00:47:36.818Z,4.13
2017-08-22T00:50:04.433Z,3.90
2017-08-22T00:52:32.014Z,4.80
2017-08-22T00:54:59.597Z,4.70
2017-08-22T00:57:27.236Z,4.97
2017-08-22T00:59:54.803Z,3.60
2017-08-22T01:02:22.345Z,3.67
2017-08-22T01:04:49.903Z,4.10
2017-08-22T01:07:17.436Z,4.20
2017-08-22T01:09:45.027Z,4.23
2017-08-22T01:12:12.556Z,4.30
2017-08-22T01:14:40.132Z,4.30
2017-08-22T01:17:07.697Z,3.80
2017-08-22T01:19:35.288Z,4.20
2017-08-22T01:22:02.875Z,4.57
2017-08-22T01:24:30.396Z,4.37
2017-08-22T01:26:58.110Z,4.63
2017-08-22T01:29:25.669Z,4.40
2017-08-22T01:31:53.201Z,4.80
2017-08-22T01:34:20.962Z,4.80
2017-08-22T01:36:48.523Z,4.20
2017-08-22T01:39:16.052Z,4.70
2017-08-22T01:41:43.620Z,4.63
2017-08-22T01:44:11.136Z,3.80
2017-08-22T01:46:38.653Z,5.07
2017-08-22T01:49:06.324Z,4.20
2017-08-22T01:51:33.832Z,6.00
2017-08-22T01:54:01.411Z,4.80
2017-08-22T01:56:28.953Z,4.03
2017-08-22T01:58:56.464Z,4.77
2017-08-22T02:01:24.047Z,5.10
2017-08-22T02:03:51.571Z,4.43
2017-08-22T02:06:19.204Z,5.03
2017-08-22T02:08:46.780Z,4.30
2017-08-22T02:11:14.303Z,5.13
2017-08-22T02:13:41.856Z,4.80
2017-08-22T02:16:10.169Z,4.60
2017-08-22T02:18:37.684Z,4.40
2017-08-22T02:21:05.224Z,4.70
2017-08-22T02:23:32.824Z,4.07
2017-08-22T02:26:00.371Z,4.83
2017-08-22T02:28:27.912Z,5.30
2017-08-22T02:30:55.535Z,4.73
2017-08-22T02:33:23.070Z,4.80
2017-08-22T02:35:50.699Z,4.43
2017-08-22T02:38:18.244Z,4.60
2017-08-22T02:40:45.856Z,4.67
2017-08-22T02:43:13.463Z,4.50
2017-08-22T02:45:40.987Z,4.83
2017-08-22T02:48:08.548Z,4.53
2017-08-22T02:50:36.089Z,4.80
2017-08-22T02:53:03.623Z,4.87
2017-08-22T02:55:31.196Z,5.77
2017-08-22T02:57:58.776Z,5.37
2017-08-22T03:00:26.384Z,5.13
2017-08-22T03:02:53.903Z,4.73
2017-08-22T03:05:21.415Z,4.87
2017-08-22T03:07:48.963Z,5.87
2017-08-22T03:10:16.480Z,5.03
2017-08-22T03:12:44.072Z,4.43
2017-08-22T03:15:11.586Z,4.83
2017-08-22T03:17:39.164Z,4.53
2017-08-22T03:20:06.744Z,5.77
2017-08-22T03:22:34.260Z,5.03
2017-08-22T03:25:01.770Z,4.03
2017-08-22T03:27:29.327Z,4.80
2017-08-22T03:29:56.835Z,4.73
2017-08-22T03:32:24.403Z,5.30
2017-08-22T03:34:51.964Z,5.37
2017-08-22T03:37:19.619Z,5.23
2017-08-22T03:39:47.176Z,5.47
2017-08-22T03:42:14.724Z,5.80
2017-08-22T03:44:42.284Z,5.23
2017-08-22T03:47:09.796Z,5.13
2017-08-22T03:49:37.376Z,4.60
2017-08-22T03:52:05.029Z,5.37
2017-08-22T03:54:32.659Z,5.00
2017-08-22T03:57:00.340Z,5.50
2017-08-22T03:59:27.912Z,5.30
2017-08-22T04:01:55.556Z,5.40
2017-08-22T04:04:23.139Z,5.57
2017-08-22T04:06:50.687Z,5.20
2017-08-22T04:09:18.212Z,4.93
2017-08-22T04:11:45.761Z,5.40
2017-08-22T04:14:13.312Z,5.00
2017-08-22T04:16:40.833Z,5.17
2017-08-22T04:19:08.399Z,4.83
2017-08-22T04:21:35.916Z,4.40
2017-08-22T04:24:03.435Z,6.20
2017-08-22T04:26:31.002Z,5.30
2017-08-22T04:28:58.528Z,5.50
2017-08-22T04:31:26.087Z,5.07
2017-08-22T04:33:53.627Z,5.27
2017-08-22T04:36:21.171Z,5.00
2017-08-22T04:38:48.780Z,5.23
2017-08-22T04:41:16.436Z,5.77
2017-08-22T04:43:44.013Z,5.63
2017-08-22T04:46:11.554Z,5.43
2017-08-22T04:48:39.193Z,5.03
2017-08-22T04:51:06.704Z,5.03
2017-08-22T04:53:34.216Z,5.30
2017-08-22T04:56:01.788Z,4.83
2017-08-22T04:58:29.458Z,5.50
2017-08-22T05:00:57.099Z,5.53
2017-08-22T05:03:24.703Z,5.23
2017-08-22T05:05:52.251Z,5.40
2017-08-22T05:08:19.812Z,4.80
2017-08-22T05:10:47.363Z,4.50
2017-08-22T05:13:14.937Z,4.67
2017-08-22T05:15:42.524Z,4.80
2017-08-22T05:18:10.095Z,4.90
2017-08-22T05:20:37.616Z,4.40
2017-08-22T05:23:05.140Z,4.77
2017-08-22T05:25:32.760Z,4.80
2017-08-22T05:28:00.299Z,5.80
2017-08-22T05:30:27.819Z,5.80
2017-08-22T05:32:55.368Z,4.53
2017-08-22T05:35:22.889Z,4.40
2017-08-22T05:37:50.508Z,3.90
2017-08-22T05:40:18.029Z,4.77
2017-08-22T05:42:45.563Z,4.10
2017-08-22T05:45:13.126Z,3.83
2017-08-22T05:47:40.643Z,4.47
2017-08-22T05:50:08.180Z,4.27
2017-08-22T05:52:35.756Z,4.33
2017-08-22T05:55:03.331Z,4.03
2017-08-22T05:57:30.910Z,4.30
2017-08-22T05:59:58.451Z,4.30
2017-08-22T06:02:26.067Z,4.00
2017-08-22T06:04:53.637Z,3.87
2017-08-22T06:07:21.171Z,4.33
2017-08-22T06:09:48.723Z,3.83
2017-08-22T06:12:16.273Z,3.80
2017-08-22T06:14:43.892Z,4.07
2017-08-22T06:17:11.480Z,3.23
2017-08-22T06:19:39.024Z,3.57
2017-08-22T06:22:06.535Z,3.87
2017-08-22T06:24:34.122Z,4.10
2017-08-22T06:27:01.668Z,3.40
2017-08-22T06:29:29.180Z,3.40
2017-08-22T06:31:56.932Z,3.67
2017-08-22T06:34:24.447Z,3.50
2017-08-22T06:36:51.980Z,3.17
2017-08-22T06:39:19.543Z,3.10
2017-08-22T06:41:47.059Z,3.00
2017-08-22T06:44:14.608Z,3.17
2017-08-22T06:46:42.215Z,3.60
2017-08-22T06:49:09.732Z,3.03
2017-08-22T06:51:37.329Z,2.60
2017-08-22T06:54:04.931Z,2.90
2017-08-22T06:56:32.459Z,2.80
2017-08-22T06:59:00.000Z,3.47
2017-08-22T07:01:27.509Z,3.00
2017-08-22T07:03:55.072Z,2.90
2017-08-22T07:06:22.596Z,3.13
2017-08-22T07:08:50.165Z,3.20
2017-08-22T07:11:17.732Z,3.23
2017-08-22T07:13:45.276Z,2.87
2017-08-22T07:16:12.824Z,2.87
2017-08-22T07:18:40.387Z,2.70
2017-08-22T07:21:07.903Z,3.70
2017-08-22T07:23:35.412Z,2.93
2017-08-22T07:26:03.055Z,3.10
2017-08-22T07:28:30.671Z,2.73
2017-08-22T07:30:58.200Z,3.00
2017-08-22T07:33:25.859Z,2.60
2017-08-22T07:35:53.386Z,3.00
2017-08-22T07:38:20.952Z,2.40
2017-08-22T07:40:48.504Z,2.53
2017-08-22T07:43:16.023Z,2.60
2017-08-22T07:45:43.748Z,2.90
2017-08-22T07:48:11.304Z,2.97
2017-08-22T07:50:38.848Z,2.67
2017-08-22T07:53:06.464Z,2.70
2017-08-22T07:55:33.979Z,2.60
2017-08-22T07:58:01.535Z,2.13
2017-08-22T08:00:29.099Z,2.17
2017-08-22T08:02:56.661Z,2.60
2017-08-22T08:05:24.211Z,2.23
2017-08-22T08:07:51.799Z,2.20
2017-08-22T08:10:19.390Z,2.30
2017-08-22T08:12:46.908Z,2.20
2017-08-22T08:15:14.503Z,1.90
2017-08-22T08:17:42.047Z,2.00
2017-08-22T08:20:09.575Z,2.20
2017-08-22T08:22:37.128Z,2.40
2017-08-22T08:25:04.635Z,2.40
2017-08-22T08:27:32.185Z,2.83
2017-08-22T08:29:59.744Z,2.50
2017-08-22T08:32:27.317Z,2.33
2017-08-22T08:34:54.836Z,2.47
2017-08-22T08:37:22.355Z,2.27
2017-08-22T08:39:49.920Z,2.60
2017-08-22T08:42:17.461Z,2.50
2017-08-22T08:44:44.980Z,2.40
2017-08-22T08:47:12.535Z,1.87
2017-08-22T08:49:40.285Z,2.63
2017-08-22T08:52:07.799Z,2.60
2017-08-22T08:54:35.313Z,2.30
2017-08-22T08:57:02.887Z,2.20
2017-08-22T08:59:30.427Z,2.33
2017-08-22T09:01:58.144Z,2.37
2017-08-22T09:04:25.699Z,2.50
2017-08-22T09:06:53.225Z,2.33
2017-08-22T09:09:20.772Z,2.57
2017-08-22T09:11:48.303Z,2.97
2017-08-22T09:14:15.956Z,2.97
2017-08-22T09:16:43.595Z,2.57
2017-08-22T09:19:11.119Z,2.50
2017-08-22T09:21:38.664Z,2.63
2017-08-22T09:24:06.232Z,2.47
2017-08-22T09:26:33.739Z,2.37
2017-08-22T09:29:01.252Z,2.03
2017-08-22T09:31:28.803Z,2.33
2017-08-22T09:33:56.384Z,2.00
2017-08-22T09:36:23.959Z,2.33
2017-08-22T09:38:51.473Z,2.37
2017-08-22T09:41:18.994Z,2.20
2017-08-22T09:43:46.565Z,1.77
2017-08-22T09:46:14.079Z,2.77
2017-08-22T09:48:41.587Z,2.60
2017-08-22T09:51:09.140Z,2.50
2017-08-22T09:53:36.704Z,2.57
2017-08-22T09:56:04.259Z,2.17
2017-08-22T09:58:31.763Z,2.20
2017-08-22T10:00:59.323Z,2.50
2017-08-22T10:03:26.836Z,2.10
2017-08-22T10:05:54.376Z,1.93
2017-08-22T10:08:21.919Z,2.50
2017-08-22T10:10:49.475Z,2.60
2017-08-22T10:13:17.024Z,2.90
2017-08-22T10:15:44.559Z,2.23
2017-08-22T10:18:12.160Z,2.13
2017-08-22T10:20:39.680Z,2.30
2017-08-22T10:23:07.443Z,2.40
2017-08-22T10:25:35.138Z,2.37
2017-08-22T10:28:02.711Z,2.47
2017-08-22T10:30:30.220Z,2.60
2017-08-22T10:32:57.744Z,2.10
2017-08-22T10:35:25.307Z,2.10
2017-08-22T10:37:52.847Z,2.30
2017-08-22T10:40:20.360Z,2.10
2017-08-22T10:42:47.907Z,2.00
2017-08-22T10:45:15.443Z,2.17
2017-08-22T10:47:43.089Z,2.20
2017-08-22T10:50:10.603Z,2.37
2017-08-22T10:52:38.123Z,2.00
2017-08-22T10:55:05.672Z,1.97
2017-08-22T10:57:33.224Z,2.20
2017-08-22T11:00:00.810Z,2.30
2017-08-22T11:02:28.365Z,2.40
2017-08-22T11:04:55.955Z,1.97
2017-08-22T11:07:23.515Z,2.30
2017-08-22T11:09:51.023Z,2.00
2017-08-22T11:12:18.540Z,2.10
2017-08-22T11:14:46.083Z,2.10
2017-08-22T11:17:13.595Z,2.50
2017-08-22T11:19:41.149Z,2.03
2017-08-22T11:22:08.699Z,2.10
2017-08-22T11:24:36.263Z,1.93
2017-08-22T11:27:03.804Z,2.00
2017-08-22T11:29:31.372Z,2.30
2017-08-22T11:31:58.907Z,2.20
2017-08-22T11:34:26.424Z,2.30
2017-08-22T11:36:53.989Z,2.50
2017-08-22T11:39:21.976Z,2.60
2017-08-22T11:41:49.514Z,2.27
2017-08-22T11:44:17.079Z,1.90
2017-08-22T11:46:44.625Z,1.90
2017-08-22T11:49:12.157Z,2.57
2017-08-22T11:51:39.716Z,2.10
2017-08-22T11:54:07.237Z,2.07
2017-08-22T11:56:34.799Z,1.90
2017-08-22T11:59:02.325Z,2.40
2017-08-22T12:01:29.881Z,2.00
2017-08-22T12:03:57.456Z,2.50
2017-08-22T12:06:25.000Z,2.20
2017-08-22T12:08:52.519Z,2.47
2017-08-22T12:11:20.131Z,2.10
2017-08-22T12:13:47.749Z,2.20
2017-08-22T12:16:15.284Z,2.17
2017-08-22T12:18:42.944Z,1.83
2017-08-22T12:21:10.479Z,2.20
2017-08-22T12:23:37.992Z,2.03
2017-08-22T12:26:05.620Z,2.10
2017-08-22T12:28:33.153Z,2.40
2017-08-22T12:31:00.672Z,2.50
2017-08-22T12:33:28.284Z,2.90
2017-08-22T12:35:55.827Z,2.23
2017-08-22T12:38:23.363Z,2.57
2017-08-22T12:40:50.912Z,2.37
2017-08-22T12:43:18.472Z,2.50
2017-08-22T12:45:45.975Z,2.37
2017-08-22T12:48:13.496Z,2.63
2017-08-22T12:50:41.079Z,2.20
2017-08-22T12:53:08.603Z,2.40
2017-08-22T12:55:36.180Z,2.93
2017-08-22T12:58:03.784Z,2.43
2017-08-22T13:00:31.446Z,3.00
2017-08-22T13:02:59.024Z,2.50
2017-08-22T13:05:26.563Z,2.80
2017-08-22T13:07:54.120Z,3.40
2017-08-22T13:10:21.732Z,2.30
2017-08-22T13:12:49.314Z,2.90
2017-08-22T13:15:16.875Z,2.57
2017-08-22T13:17:44.431Z,2.43
2017-08-22T13:20:12.043Z,2.70
2017-08-22T13:22:39.627Z,2.40
2017-08-22T13:25:07.187Z,3.03
2017-08-22T13:27:34.756Z,2.70
2017-08-22T13:30:02.352Z,2.80
2017-08-22T13:32:29.954Z,2.70
2017-08-22T13:34:57.465Z,2.50
2017-08-22T13:37:24.982Z,2.20
2017-08-22T13:39:52.669Z,2.30
2017-08-22T13:42:20.343Z,2.53
2017-08-22T13:44:48.227Z,2.57
2017-08-22T13:47:15.809Z,2.17
2017-08-22T13:49:43.517Z,2.70
2017-08-22T13:52:11.233Z,2.10
2017-08-22T13:54:38.819Z,2.47
2017-08-22T13:57:06.343Z,2.30
2017-08-22T13:59:33.975Z,3.10
2017-08-22T14:02:01.535Z,2.70
2017-08-22T14:04:29.125Z,2.43
2017-08-22T14:06:56.644Z,2.90
2017-08-22T14:09:24.204Z,2.80
2017-08-22T14:11:51.728Z,2.57
2017-08-22T14:14:19.280Z,2.93
2017-08-22T14:16:46.881Z,2.83
2017-08-22T14:19:14.608Z,2.60
2017-08-22T14:21:42.128Z,2.90
2017-08-22T14:24:09.651Z,2.73
2017-08-22T14:26:37.247Z,2.57
2017-08-22T14:29:04.763Z,2.70
2017-08-22T14:31:32.272Z,3.00
2017-08-22T14:33:59.843Z,2.50
2017-08-22T14:36:27.408Z,3.00
2017-08-22T14:38:54.935Z,2.40
2017-08-22T14:41:22.451Z,2.80
2017-08-22T14:43:50.063Z,2.80
2017-08-22T14:46:17.743Z,2.37
2017-08-22T14:48:45.256Z,2.30
2017-08-22T14:51:12.812Z,3.00
2017-08-22T14:53:40.388Z,2.40
2017-08-22T14:56:07.936Z,2.30
2017-08-22T14:58:35.449Z,2.20
2017-08-22T15:01:03.036Z,2.50
2017-08-22T15:03:30.782Z,3.00
2017-08-22T15:05:58.299Z,2.90
2017-08-22T15:08:25.863Z,3.10
2017-08-22T15:10:53.388Z,2.50
2017-08-22T15:13:20.994Z,2.43
2017-08-22T15:15:48.544Z,2.67
2017-08-22T15:18:16.163Z,2.60
2017-08-22T15:20:43.759Z,2.60
2017-08-22T15:23:11.393Z,2.40
2017-08-22T15:25:38.932Z,2.80
2017-08-22T15:28:06.468Z,2.20
2017-08-22T15:30:34.023Z,2.67
2017-08-22T15:33:01.583Z,2.40
2017-08-22T15:35:29.142Z,2.10
2017-08-22T15:37:56.740Z,3.10
2017-08-22T15:40:24.304Z,2.60
2017-08-22T15:42:51.820Z,2.30
2017-08-22T15:45:19.352Z,2.30
2017-08-22T15:47:46.897Z,2.20
2017-08-22T15:50:14.491Z,2.17
2017-08-22T15:52:42.036Z,2.67
2017-08-22T15:55:09.596Z,2.43
2017-08-22T15:57:37.148Z,2.43
2017-08-22T16:00:04.702Z,2.50
2017-08-22T16:02:32.220Z,2.30
2017-08-22T16:04:59.787Z,2.20
2017-08-22T16:07:27.300Z,2.30
2017-08-22T16:10:32.799Z,2.60
2017-08-22T16:13:00.337Z,2.30
2017-08-22T16:15:27.917Z,2.30
2017-08-22T16:17:55.488Z,3.40
2017-08-22T16:20:23.031Z,2.80
2017-08-22T16:22:50.559Z,3.43
2017-08-22T16:25:18.131Z,2.50
2017-08-22T16:27:45.672Z,2.53
2017-08-22T16:30:13.228Z,2.07
2017-08-22T16:32:40.777Z,2.37
2017-08-22T16:35:08.307Z,2.00
2017-08-22T16:37:35.853Z,2.30
2017-08-22T16:40:03.372Z,2.70
2017-08-22T16:42:30.912Z,2.73
2017-08-22T16:44:58.473Z,2.23
2017-08-22T16:47:26.131Z,2.63
2017-08-22T16:49:53.655Z,2.30
2017-08-22T16:52:21.316Z,2.20
2017-08-22T16:54:49.003Z,2.33
2017-08-22T16:57:16.523Z,2.40
2017-08-22T16:59:44.042Z,2.70
2017-08-22T17:02:11.623Z,2.30
2017-08-22T17:04:39.181Z,2.20
2017-08-22T17:07:06.688Z,2.60
2017-08-22T17:09:34.233Z,2.53
2017-08-22T17:12:01.835Z,2.07
2017-08-22T17:14:29.415Z,1.97
2017-08-22T17:16:56.941Z,2.37
2017-08-22T17:19:24.500Z,2.70
2017-08-22T17:21:52.069Z,2.80
2017-08-22T17:24:19.597Z,2.40
2017-08-22T17:26:47.119Z,2.60
2017-08-22T17:29:14.688Z,2.40
2017-08-22T17:31:42.301Z,2.17
2017-08-22T17:34:09.860Z,2.83
2017-08-22T17:36:37.411Z,2.57
2017-08-22T17:39:04.984Z,2.30
2017-08-22T17:41:32.554Z,2.37
2017-08-22T17:44:00.157Z,2.47
2017-08-22T17:46:28.260Z,2.50
2017-08-22T17:48:55.817Z,2.43
2017-08-22T17:51:23.372Z,2.53
2017-08-22T17:53:50.921Z,2.67
2017-08-22T17:56:18.464Z,2.70
2017-08-22T17:58:46.017Z,2.40
2017-08-22T18:01:13.576Z,2.77
2017-08-22T18:03:41.108Z,2.80
2017-08-22T18:06:08.671Z,2.23
2017-08-22T18:08:36.188Z,2.70
2017-08-22T18:11:03.720Z,2.80
2017-08-22T18:13:31.267Z,2.80
2017-08-22T18:15:58.783Z,2.87
2017-08-22T18:18:26.348Z,2.53
2017-08-22T18:20:53.871Z,3.23
2017-08-22T18:23:21.391Z,3.23
2017-08-22T18:25:48.957Z,2.60
2017-08-22T18:28:16.469Z,2.40
2017-08-22T18:30:44.049Z,2.90
2017-08-22T18:33:11.639Z,2.47
2017-08-22T18:35:39.188Z,2.87
2017-08-22T18:38:06.706Z,2.80
2017-08-22T18:40:35.027Z,2.67
2017-08-22T18:43:02.539Z,2.63
2017-08-22T18:45:30.095Z,2.40
2017-08-22T18:47:57.622Z,2.53
2017-08-22T18:50:25.147Z,2.77
2017-08-22T18:52:52.936Z,3.07
2017-08-22T18:55:20.481Z,2.53
2017-08-22T18:57:48.017Z,2.40
2017-08-22T19:00:15.563Z,3.03
2017-08-22T19:02:43.093Z,2.77
2017-08-22T19:05:10.697Z,3.50
2017-08-22T19:07:38.229Z,3.13
2017-08-22T19:10:05.735Z,2.93
2017-08-22T19:12:33.280Z,3.23
2017-08-22T19:15:00.991Z,3.50
2017-08-22T19:17:28.546Z,3.60
2017-08-22T19:19:56.068Z,3.20
2017-08-22T19:22:23.787Z,3.60
2017-08-22T19:24:51.298Z,3.27
2017-08-22T19:27:18.935Z,3.60
2017-08-22T19:29:46.483Z,3.90
2017-08-22T19:32:14.160Z,3.17
2017-08-22T19:34:41.714Z,3.40
2017-08-22T19:37:09.234Z,3.47
2017-08-22T19:39:36.787Z,3.47
2017-08-22T19:42:04.363Z,2.90
2017-08-22T19:44:31.896Z,3.57
2017-08-22T19:46:59.465Z,3.30
2017-08-22T19:49:27.032Z,3.80
2017-08-22T19:51:54.552Z,3.43
2017-08-22T19:54:22.107Z,3.67
2017-08-22T19:56:49.713Z,3.67
2017-08-22T19:59:17.234Z,3.47
2017-08-22T20:01:44.808Z,3.07
2017-08-22T20:04:12.340Z,3.80
2017-08-22T20:06:39.893Z,3.73
2017-08-22T20:09:07.484Z,3.77
2017-08-22T20:11:35.043Z,3.67
2017-08-22T20:14:02.612Z,3.40
2017-08-22T20:16:30.129Z,3.43
2017-08-22T20:18:57.644Z,3.97
2017-08-22T20:21:25.247Z,3.97
2017-08-22T20:23:52.764Z,3.90
2017-08-22T20:26:20.396Z,4.20
2017-08-22T20:28:48.020Z,4.03
2017-08-22T20:31:15.767Z,4.90
2017-08-22T20:33:43.303Z,3.77
2017-08-22T20:36:10.940Z,4.17
2017-08-22T20:38:38.484Z,4.70
2017-08-22T20:41:06.128Z,4.77
2017-08-22T20:43:33.671Z,4.43
2017-08-22T20:46:01.239Z,4.13
2017-08-22T20:48:28.816Z,4.07
2017-08-22T20:50:56.337Z,4.23
2017-08-22T20:53:23.883Z,4.60
2017-08-22T20:55:51.439Z,3.80
2017-08-22T20:58:19.069Z,4.67
2017-08-22T21:00:46.640Z,4.30
2017-08-22T21:03:14.512Z,4.07
2017-08-22T21:05:42.068Z,4.93
2017-08-22T21:08:09.697Z,4.60
2017-08-22T21:10:37.280Z,4.13
2017-08-22T21:13:04.821Z,3.83
2017-08-22T21:15:32.349Z,4.20
2017-08-22T21:17:59.904Z,4.53
2017-08-22T21:20:27.464Z,4.80
2017-08-22T21:22:54.981Z,4.70
2017-08-22T21:25:22.556Z,4.57
2017-08-22T21:27:50.100Z,4.77
2017-08-22T21:30:17.616Z,4.40
2017-08-22T21:32:45.216Z,4.53
2017-08-22T21:35:12.909Z,4.00
2017-08-22T21:37:40.621Z,4.67
2017-08-22T21:40:08.379Z,4.27
2017-08-22T21:42:35.930Z,4.07
2017-08-22T21:45:03.538Z,4.70
2017-08-22T21:47:31.195Z,3.70
2017-08-22T21:49:58.743Z,4.27
2017-08-22T21:52:26.433Z,4.20
2017-08-22T21:54:53.998Z,4.23
2017-08-22T21:57:21.529Z,4.17
2017-08-22T21:59:49.059Z,4.23
2017-08-22T22:02:16.631Z,4.00
2017-08-22T22:04:44.156Z,4.77
2017-08-22T22:07:11.703Z,4.60
2017-08-22T22:09:40.112Z,4.40
2017-08-22T22:12:07.709Z,4.50
2017-08-22T22:14:35.264Z,4.43
2017-08-22T22:17:02.800Z,3.87
2017-08-22T22:19:30.369Z,5.13
2017-08-22T22:21:57.880Z,4.20
2017-08-22T22:24:25.420Z,4.70
2017-08-22T22:26:52.989Z,5.10
2017-08-22T22:29:20.555Z,4.60
2017-08-22T22:31:48.071Z,4.60
2017-08-22T22:34:15.620Z,4.20
2017-08-22T22:36:43.155Z,4.43
2017-08-22T22:39:10.663Z,4.70
2017-08-22T22:41:38.264Z,5.00
2017-08-22T22:44:05.826Z,4.50
2017-08-22T22:46:33.362Z,4.90
2017-08-22T22:49:00.996Z,4.90
2017-08-22T22:51:28.627Z,4.10
2017-08-22T22:53:56.212Z,4.57
2017-08-22T22:56:23.968Z,4.57
2017-08-22T22:58:51.512Z,5.13
2017-08-22T23:01:19.024Z,5.23
2017-08-22T23:03:46.584Z,4.67
2017-08-22T23:06:14.147Z,4.33
2017-08-22T23:08:41.679Z,4.97
2017-08-22T23:11:09.253Z,4.73
2017-08-22T23:13:36.771Z,4.53
2017-08-22T23:16:04.302Z,4.87
2017-08-22T23:18:31.911Z,5.20
2017-08-22T23:20:59.435Z,4.87
2017-08-22T23:23:26.952Z,4.90
2017-08-22T23:25:54.525Z,5.17
2017-08-22T23:28:22.112Z,4.80
2017-08-22T23:30:49.667Z,5.73
2017-08-22T23:33:17.239Z,5.03
2017-08-22T23:35:44.795Z,5.23
2017-08-22T23:38:12.333Z,5.37
2017-08-22T23:40:39.931Z,5.47
2017-08-22T23:43:07.631Z,5.73
2017-08-22T23:45:35.159Z,5.17
2017-08-22T23:48:02.723Z,5.63
2017-08-22T23:50:30.253Z,5.53
2017-08-22T23:52:57.778Z,5.63
2017-08-22T23:55:25.388Z,5.00
2017-08-22T23:57:52.908Z,5.23
